Time;durP1;ratioP1;P1;durP2;ratioP2;P2;SDS_P1;SDS_P2;PMS_P1;PMS_P2;Temp;Humidity;BMP_temperature;BMP_pressure;BME280_temperature;BME280_humidity;BME280_pressure;Samples;Min_cycle;Max_cycle;Signal;HPM_P1;HPM_P2
2022/03/15 00:00:57;;;;;;;15.90;5.10;;;12.00;99.90;;;;;;5050200;28;20020;-85
2022/03/15 00:03:23;;;;;;;12.07;5.43;;;12.00;99.90;;;;;;5050501;28;20025;-84
2022/03/15 00:05:49;;;;;;;14.27;5.15;;;12.00;99.90;;;;;;5050461;28;20039;-84
2022/03/15 00:08:19;;;;;;;14.88;5.50;;;12.00;99.90;;;;;;5049886;28;20559;-84
2022/03/15 00:10:45;;;;;;;14.48;6.05;;;12.10;99.90;;;;;;5049777;28;20550;-85
2022/03/15 00:13:11;;;;;;;20.90;6.00;;;12.00;99.90;;;;;;5049952;28;20155;-84
2022/03/15 00:15:40;;;;;;;16.42;5.25;;;12.10;99.90;;;;;;5049907;28;20102;-84
2022/03/15 00:18:06;;;;;;;14.93;5.45;;;12.00;99.90;;;;;;5051107;28;20025;-84
2022/03/15 00:20:31;;;;;;;16.20;5.57;;;12.00;99.90;;;;;;5049746;28;20533;-84
2022/03/15 00:22:59;;;;;;;13.75;4.95;;;12.00;99.90;;;;;;5050141;28;20021;-85
2022/03/15 00:25:26;;;;;;;14.88;5.53;;;12.10;99.90;;;;;;5049488;28;20021;-85
2022/03/15 00:27:51;;;;;;;17.88;5.72;;;12.10;99.90;;;;;;5050031;28;20029;-85
2022/03/15 00:30:18;;;;;;;13.55;4.70;;;12.00;99.90;;;;;;5051089;28;20032;-84
2022/03/15 00:32:44;;;;;;;10.15;4.50;;;12.10;99.90;;;;;;5049617;28;20029;-85
2022/03/15 00:35:16;;;;;;;12.65;4.57;;;12.00;99.90;;;;;;5049325;28;20033;-85
2022/03/15 00:37:43;;;;;;;21.25;5.72;;;12.00;99.90;;;;;;5049457;28;20021;-84
2022/03/15 00:40:10;;;;;;;11.93;5.25;;;12.00;99.90;;;;;;5049439;28;20506;-84
2022/03/15 00:42:35;;;;;;;14.93;5.35;;;12.00;99.90;;;;;;5049723;28;20021;-84
2022/03/15 00:45:02;;;;;;;19.58;5.78;;;12.00;99.90;;;;;;5050475;28;20021;-83
2022/03/15 00:47:29;;;;;;;18.25;5.50;;;12.00;99.90;;;;;;5049617;28;20025;-84
2022/03/15 00:49:55;;;;;;;14.85;5.15;;;11.90;99.90;;;;;;5049210;28;20079;-85
2022/03/15 00:52:20;;;;;;;21.17;6.32;;;11.90;99.90;;;;;;5048755;28;20494;-85
2022/03/15 00:54:47;;;;;;;13.25;5.75;;;11.90;99.90;;;;;;5048918;28;20021;-84
2022/03/15 00:57:12;;;;;;;16.88;6.18;;;12.00;99.90;;;;;;5050637;28;20018;-85
2022/03/15 00:59:38;;;;;;;21.27;5.55;;;11.90;99.90;;;;;;5048889;28;20100;-84
2022/03/15 01:02:04;;;;;;;18.27;6.40;;;11.90;99.90;;;;;;5049382;28;20159;-84
2022/03/15 01:04:29;;;;;;;16.63;5.35;;;11.90;99.90;;;;;;5049108;28;20020;-85
2022/03/15 01:06:55;;;;;;;22.65;5.32;;;11.90;99.90;;;;;;5049191;28;20572;-85
2022/03/15 01:09:21;;;;;;;18.55;5.55;;;11.90;99.90;;;;;;5049782;28;20029;-84
2022/03/15 01:11:47;;;;;;;19.50;5.07;;;12.00;99.90;;;;;;5049941;28;20125;-84
2022/03/15 01:14:13;;;;;;;16.77;5.40;;;12.00;99.90;;;;;;5049235;28;20067;-83
2022/03/15 01:16:39;;;;;;;16.08;5.55;;;12.00;99.90;;;;;;5048839;28;20032;-84
2022/03/15 01:19:07;;;;;;;20.00;5.70;;;11.90;99.90;;;;;;5049090;28;20047;-84
2022/03/15 01:21:35;;;;;;;16.27;5.43;;;12.00;99.90;;;;;;5049436;28;20075;-84
2022/03/15 01:24:00;;;;;;;14.38;5.47;;;12.00;99.90;;;;;;5048067;28;20032;-84
2022/03/15 01:26:26;;;;;;;15.52;5.82;;;11.90;99.90;;;;;;5049124;28;20041;-85
2022/03/15 01:28:52;;;;;;;15.15;5.03;;;12.00;99.90;;;;;;5049334;28;20071;-84
2022/03/15 01:31:18;;;;;;;27.95;6.03;;;11.90;99.90;;;;;;5048757;28;20060;-84
2022/03/15 01:33:44;;;;;;;16.25;5.72;;;12.00;99.90;;;;;;5049491;28;20028;-84
2022/03/15 01:36:09;;;;;;;22.20;5.03;;;12.00;99.90;;;;;;5050098;28;20028;-85
2022/03/15 01:38:35;;;;;;;15.23;5.05;;;12.00;99.90;;;;;;5048805;28;20021;-84
2022/03/15 01:41:01;;;;;;;18.98;5.43;;;12.00;99.90;;;;;;5049014;28;20017;-85
2022/03/15 01:43:27;;;;;;;15.15;5.60;;;12.00;99.90;;;;;;5049086;28;20025;-85
2022/03/15 01:45:53;;;;;;;21.15;6.65;;;12.10;99.90;;;;;;5048915;28;20529;-85
2022/03/15 01:48:20;;;;;;;17.92;5.03;;;12.10;99.90;;;;;;5050551;28;20025;-84
2022/03/15 01:50:46;;;;;;;16.13;5.78;;;12.10;99.90;;;;;;5048714;28;20045;-85
2022/03/15 01:53:15;;;;;;;23.55;6.22;;;12.00;99.90;;;;;;5048507;28;20056;-86
2022/03/15 01:55:41;;;;;;;13.15;4.28;;;12.00;99.90;;;;;;5048476;28;20021;-85
2022/03/15 01:58:06;;;;;;;15.63;4.75;;;12.00;99.90;;;;;;5051117;28;20099;-84
2022/03/15 02:00:32;;;;;;;13.27;5.15;;;12.00;99.90;;;;;;5052489;28;20071;-84
2022/03/15 02:02:58;;;;;;;12.75;4.65;;;11.90;99.90;;;;;;5053590;28;20122;-85
2022/03/15 02:05:24;;;;;;;20.70;5.72;;;11.90;99.90;;;;;;5051885;28;20581;-84
2022/03/15 02:07:50;;;;;;;16.33;6.30;;;12.00;99.90;;;;;;5052055;28;20069;-85
2022/03/15 02:10:16;;;;;;;20.55;5.20;;;12.00;99.90;;;;;;5052247;28;20040;-84
2022/03/15 02:12:42;;;;;;;21.13;5.47;;;12.00;99.90;;;;;;5052118;28;20033;-84
2022/03/15 02:15:09;;;;;;;20.75;6.28;;;12.00;99.90;;;;;;5053246;28;20465;-84
2022/03/15 02:17:36;;;;;;;14.40;5.88;;;11.90;99.90;;;;;;5052015;28;20116;-84
2022/03/15 02:20:09;;;;;;;16.60;5.43;;;11.90;99.90;;;;;;5051486;28;20032;-84
2022/03/15 02:22:35;;;;;;;15.02;5.53;;;12.00;99.90;;;;;;5052044;28;20036;-85
2022/03/15 02:25:02;;;;;;;15.98;5.32;;;12.00;99.90;;;;;;5051878;28;20037;-85
2022/03/15 02:27:28;;;;;;;18.27;4.78;;;12.10;99.90;;;;;;5052470;28;20021;-84
2022/03/15 02:29:54;;;;;;;15.90;5.35;;;12.00;99.90;;;;;;5052809;28;20487;-85
2022/03/15 02:32:20;;;;;;;17.90;5.13;;;12.00;99.90;;;;;;5051304;28;20025;-86
2022/03/15 02:34:45;;;;;;;18.25;5.63;;;12.00;99.90;;;;;;5051243;28;20025;-85
2022/03/15 02:37:11;;;;;;;17.83;6.10;;;12.00;99.90;;;;;;5051755;28;20029;-84
2022/03/15 02:39:37;;;;;;;16.92;5.35;;;12.00;99.90;;;;;;5051875;28;20013;-84
2022/03/15 02:42:03;;;;;;;19.10;6.05;;;12.00;99.90;;;;;;5052887;28;20517;-85
2022/03/15 02:44:28;;;;;;;23.05;6.35;;;12.00;99.90;;;;;;5051374;28;20060;-84
2022/03/15 02:46:54;;;;;;;18.33;5.95;;;12.00;99.90;;;;;;5051255;28;20525;-84
2022/03/15 02:49:20;;;;;;;18.85;6.88;;;12.00;99.90;;;;;;5051198;28;20029;-84
2022/03/15 02:51:46;;;;;;;20.23;5.50;;;12.00;99.90;;;;;;5051511;28;20494;-84
2022/03/15 02:54:13;;;;;;;17.75;5.20;;;11.90;99.90;;;;;;5052904;28;20111;-84
2022/03/15 02:56:42;;;;;;;17.20;5.72;;;11.90;99.90;;;;;;5051088;28;20024;-84
2022/03/15 02:59:08;;;;;;;22.92;5.63;;;12.00;99.90;;;;;;5051293;28;20032;-84
2022/03/15 03:01:34;;;;;;;25.30;5.75;;;12.00;99.90;;;;;;5051031;28;20028;-85
2022/03/15 03:04:00;;;;;;;15.20;5.63;;;12.00;99.90;;;;;;5050981;28;20025;-85
2022/03/15 03:06:25;;;;;;;16.70;6.78;;;12.00;99.90;;;;;;5051253;28;20108;-85
2022/03/15 03:08:52;;;;;;;17.23;5.75;;;12.00;99.90;;;;;;5050894;28;20064;-85
2022/03/15 03:11:18;;;;;;;19.70;5.50;;;12.00;99.90;;;;;;5050873;28;20112;-84
2022/03/15 03:13:44;;;;;;;12.82;4.72;;;12.00;99.90;;;;;;5050842;28;20116;-84
2022/03/15 03:16:13;;;;;;;21.00;6.45;;;12.10;99.90;;;;;;5050908;28;20021;-84
2022/03/15 03:18:39;;;;;;;14.65;5.22;;;12.00;99.90;;;;;;5050638;28;20025;-85
2022/03/15 03:21:06;;;;;;;18.92;5.28;;;12.00;99.90;;;;;;5051966;28;20048;-85
2022/03/15 03:23:38;;;;;;;18.65;5.25;;;12.10;99.90;;;;;;5051097;28;20025;-84
2022/03/15 03:26:05;;;;;;;16.48;5.50;;;12.10;99.90;;;;;;5050610;28;20029;-85
2022/03/15 03:28:36;;;;;;;18.38;5.38;;;12.00;99.90;;;;;;5050688;28;20112;-84
2022/03/15 03:31:03;;;;;;;22.50;5.90;;;12.00;99.90;;;;;;5050884;28;20098;-85
2022/03/15 03:33:30;;;;;;;17.00;4.90;;;12.00;99.90;;;;;;5050789;28;20032;-84
2022/03/15 03:35:57;;;;;;;20.05;5.35;;;12.00;99.90;;;;;;5051540;28;20021;-84
2022/03/15 03:38:23;;;;;;;16.65;5.60;;;12.00;99.90;;;;;;5050292;28;20048;-84
2022/03/15 03:40:48;;;;;;;16.77;5.35;;;12.00;99.90;;;;;;5050351;28;20581;-85
2022/03/15 03:43:14;;;;;;;21.98;5.90;;;12.10;99.90;;;;;;5050552;28;20478;-86
2022/03/15 03:45:41;;;;;;;16.35;5.35;;;12.00;99.90;;;;;;5050411;28;20033;-86
2022/03/15 03:48:07;;;;;;;16.88;5.53;;;12.00;99.90;;;;;;5051436;28;20036;-85
2022/03/15 03:50:34;;;;;;;13.00;4.68;;;12.00;99.90;;;;;;5049950;28;20045;-85
2022/03/15 03:53:00;;;;;;;15.98;4.45;;;12.00;99.90;;;;;;5050446;28;20025;-85
2022/03/15 03:55:26;;;;;;;16.77;4.53;;;11.90;99.90;;;;;;5050175;28;20441;-85
2022/03/15 03:57:52;;;;;;;24.23;5.05;;;12.00;99.90;;;;;;5050402;28;20025;-85
2022/03/15 04:00:18;;;;;;;18.77;5.13;;;12.00;99.90;;;;;;5051738;28;20379;-85
2022/03/15 04:02:43;;;;;;;15.85;5.07;;;12.00;99.90;;;;;;5049687;28;20052;-85
2022/03/15 04:05:09;;;;;;;16.20;4.10;;;12.00;99.90;;;;;;5049666;28;20498;-85
2022/03/15 04:07:39;;;;;;;13.55;4.82;;;12.00;99.90;;;;;;5049713;28;20024;-85
2022/03/15 04:10:06;;;;;;;17.13;5.57;;;12.00;99.90;;;;;;5050386;28;20029;-86
2022/03/15 04:12:33;;;;;;;17.58;4.63;;;11.90;99.90;;;;;;5050068;28;20112;-86
2022/03/15 04:14:59;;;;;;;16.80;5.10;;;11.90;99.90;;;;;;5050696;28;20091;-84
2022/03/15 04:17:26;;;;;;;18.75;5.97;;;11.90;99.90;;;;;;5049591;28;20482;-85
2022/03/15 04:19:52;;;;;;;19.73;5.35;;;11.90;99.90;;;;;;5049083;28;20025;-85
2022/03/15 04:22:18;;;;;;;16.15;5.38;;;12.00;99.90;;;;;;5050088;28;20091;-84
2022/03/15 04:24:44;;;;;;;14.27;5.78;;;11.90;99.90;;;;;;5049958;28;20506;-85
2022/03/15 04:27:10;;;;;;;14.18;5.30;;;11.90;99.90;;;;;;5033159;28;20025;-85
2022/03/15 04:29:35;;;;;;;16.17;5.57;;;11.90;99.90;;;;;;5049782;28;20276;-84
2022/03/15 04:32:01;;;;;;;13.90;4.85;;;12.00;99.90;;;;;;5049308;28;20048;-85
2022/03/15 04:34:30;;;;;;;13.55;5.00;;;12.00;99.90;;;;;;5049559;28;20039;-84
2022/03/15 04:36:56;;;;;;;11.30;4.78;;;12.00;99.90;;;;;;5049533;28;20301;-84
2022/03/15 04:39:21;;;;;;;16.55;4.05;;;11.90;99.90;;;;;;5050265;28;20028;-84
2022/03/15 04:41:47;;;;;;;12.07;4.43;;;11.90;99.90;;;;;;5050307;28;20044;-85
2022/03/15 04:44:13;;;;;;;16.88;5.22;;;11.90;99.90;;;;;;5049727;28;20032;-84
2022/03/15 04:46:39;;;;;;;12.40;4.43;;;12.00;99.90;;;;;;5049106;28;20120;-85
2022/03/15 04:49:04;;;;;;;17.63;5.10;;;11.90;99.90;;;;;;5049457;28;20559;-84
2022/03/15 04:51:30;;;;;;;13.48;5.07;;;11.90;99.90;;;;;;5049496;28;20525;-85
2022/03/15 04:53:56;;;;;;;10.75;5.00;;;12.00;99.90;;;;;;5050291;28;20059;-84
2022/03/15 04:56:22;;;;;;;12.80;4.55;;;11.90;99.90;;;;;;5049116;28;20053;-84
2022/03/15 04:58:48;;;;;;;16.42;4.90;;;12.00;99.90;;;;;;5049274;28;20055;-84
2022/03/15 05:01:13;;;;;;;11.18;3.92;;;12.00;99.90;;;;;;5049046;28;20025;-84
2022/03/15 05:03:40;;;;;;;10.88;4.70;;;12.00;99.90;;;;;;5049288;28;20021;-85
2022/03/15 05:06:06;;;;;;;13.18;4.82;;;12.00;99.90;;;;;;5050345;28;20036;-84
2022/03/15 05:08:32;;;;;;;13.45;5.07;;;12.00;99.90;;;;;;5048639;28;20079;-84
2022/03/15 05:11:06;;;;;;;10.32;4.30;;;12.00;99.90;;;;;;5049469;28;20025;-85
2022/03/15 05:13:45;;;;;;;16.20;5.28;;;12.00;99.90;;;;;;5049401;28;20025;-85
2022/03/15 05:16:17;;;;;;;12.10;4.63;;;12.00;99.90;;;;;;5049497;28;20029;-85
2022/03/15 05:18:45;;;;;;;14.80;4.75;;;12.00;99.90;;;;;;5049131;28;20025;-85
2022/03/15 05:21:16;;;;;;;14.85;4.30;;;12.00;99.90;;;;;;5050268;28;20029;-84
2022/03/15 05:23:43;;;;;;;14.35;5.03;;;12.00;99.90;;;;;;5049099;28;20059;-85
2022/03/15 05:26:10;;;;;;;17.33;5.53;;;12.00;99.90;;;;;;5049136;28;20043;-85
2022/03/15 05:28:36;;;;;;;13.70;4.35;;;12.00;99.90;;;;;;5048875;28;20056;-84
2022/03/15 05:31:01;;;;;;;9.02;4.30;;;12.00;99.90;;;;;;5049076;28;20064;-84
2022/03/15 05:33:30;;;;;;;16.00;4.82;;;12.00;99.90;;;;;;5052040;28;20060;-84
2022/03/15 05:35:56;;;;;;;16.70;4.88;;;12.00;99.90;;;;;;5053521;28;20245;-85
2022/03/15 05:38:22;;;;;;;18.75;5.53;;;12.00;99.90;;;;;;5052642;28;20487;-85
2022/03/15 05:40:48;;;;;;;10.10;4.38;;;12.00;99.90;;;;;;5052663;28;20032;-85
2022/03/15 05:43:14;;;;;;;13.25;3.95;;;12.00;99.90;;;;;;5052617;28;20402;-85
2022/03/15 05:45:40;;;;;;;13.80;4.28;;;12.00;99.90;;;;;;5052575;28;21573;-84
2022/03/15 05:48:06;;;;;;;13.98;5.07;;;12.00;99.90;;;;;;5053935;28;20071;-84
2022/03/15 05:50:32;;;;;;;15.73;5.40;;;12.00;99.90;;;;;;5052104;28;20052;-85
2022/03/15 05:53:04;;;;;;;11.43;4.65;;;12.10;99.90;;;;;;5052410;28;20029;-84
2022/03/15 05:55:32;;;;;;;10.02;4.00;;;12.10;99.90;;;;;;5052714;28;20021;-85
2022/03/15 05:57:58;;;;;;;14.10;4.38;;;12.10;99.90;;;;;;5052302;28;20025;-85
2022/03/15 06:00:24;;;;;;;12.55;4.40;;;12.10;99.90;;;;;;5052706;28;20017;-85
2022/03/15 06:02:50;;;;;;;9.65;3.80;;;12.00;99.90;;;;;;5053595;28;20025;-84
2022/03/15 06:05:16;;;;;;;11.05;4.15;;;12.10;99.90;;;;;;5052117;28;20514;-85
2022/03/15 06:07:49;;;;;;;13.38;4.60;;;12.00;99.90;;;;;;5051883;28;20029;-85
2022/03/15 06:10:17;;;;;;;14.77;4.30;;;12.00;99.90;;;;;;5052374;28;20021;-85
2022/03/15 06:12:43;;;;;;;14.85;5.22;;;12.00;99.90;;;;;;5052222;28;20040;-85
2022/03/15 06:15:10;;;;;;;15.45;4.38;;;12.10;99.90;;;;;;5053359;28;20025;-84
2022/03/15 06:18:03;;;;;;;14.00;4.18;;;12.10;99.90;;;;;;5052118;28;20103;-85
2022/03/15 06:20:29;;;;;;;14.60;4.97;;;12.10;99.90;;;;;;5047649;28;20087;-84
2022/03/15 06:22:55;;;;;;;11.95;4.97;;;12.00;99.90;;;;;;5052112;28;20021;-84
2022/03/15 06:25:21;;;;;;;11.88;4.47;;;12.00;99.90;;;;;;5052243;28;20584;-84
2022/03/15 06:27:48;;;;;;;15.27;4.28;;;12.00;99.90;;;;;;5051789;28;20036;-84
2022/03/15 06:30:16;;;;;;;14.15;5.40;;;12.00;99.90;;;;;;5053233;28;20033;-84
2022/03/15 06:32:43;;;;;;;12.43;4.22;;;12.00;99.90;;;;;;5051860;28;20043;-84
2022/03/15 06:35:10;;;;;;;10.00;4.13;;;12.00;99.90;;;;;;5051483;28;20033;-85
2022/03/15 06:37:55;;;;;;;9.77;4.43;;;12.00;99.90;;;;;;5051515;28;20029;-85
2022/03/15 06:40:22;;;;;;;17.83;4.57;;;12.10;99.90;;;;;;5051789;28;20019;-84
2022/03/15 06:42:48;;;;;;;17.98;5.68;;;12.10;99.90;;;;;;5051344;28;20029;-84
2022/03/15 06:45:15;;;;;;;15.98;4.82;;;12.10;99.90;;;;;;5052813;28;20525;-84
2022/03/15 06:47:41;;;;;;;13.80;5.28;;;12.10;99.90;;;;;;5051410;28;20051;-85
2022/03/15 06:50:08;;;;;;;15.63;4.90;;;12.10;99.90;;;;;;5051254;28;20530;-83
2022/03/15 06:52:38;;;;;;;12.48;5.03;;;12.10;99.90;;;;;;5051317;28;20594;-84
2022/03/15 06:55:05;;;;;;;18.63;4.80;;;12.20;99.90;;;;;;5051298;28;20042;-84
2022/03/15 06:57:31;;;;;;;9.20;3.92;;;12.10;99.90;;;;;;5051661;28;20499;-84
2022/03/15 06:59:59;;;;;;;16.30;4.65;;;12.10;99.90;;;;;;5052444;28;20028;-84
2022/03/15 07:02:25;;;;;;;20.90;4.30;;;12.10;99.90;;;;;;5051365;28;20021;-84
2022/03/15 07:04:51;;;;;;;10.82;4.20;;;12.10;99.90;;;;;;5051474;28;20033;-84
2022/03/15 07:07:17;;;;;;;14.68;4.07;;;12.10;99.90;;;;;;5050886;28;20026;-86
2022/03/15 07:09:43;;;;;;;17.00;4.45;;;12.10;99.90;;;;;;5050920;28;20801;-84
2022/03/15 07:12:09;;;;;;;7.93;3.58;;;12.10;99.90;;;;;;5052331;28;20100;-84
2022/03/15 07:14:35;;;;;;;9.70;4.25;;;12.10;99.90;;;;;;5051085;28;20483;-84
2022/03/15 07:17:00;;;;;;;9.88;3.53;;;12.20;99.90;;;;;;5051022;28;20388;-84
2022/03/15 07:19:27;;;;;;;13.65;3.95;;;12.20;99.90;;;;;;5050973;28;20032;-85
2022/03/15 07:21:53;;;;;;;15.32;4.18;;;12.10;99.90;;;;;;5050952;28;20013;-85
2022/03/15 07:24:19;;;;;;;12.85;3.75;;;12.10;99.90;;;;;;5052193;28;20108;-84
2022/03/15 07:26:45;;;;;;;11.63;4.65;;;12.20;99.90;;;;;;5050801;28;20518;-84
2022/03/15 07:29:10;;;;;;;12.38;3.47;;;12.20;99.90;;;;;;5050728;28;20032;-84
2022/03/15 07:31:36;;;;;;;13.75;3.95;;;12.20;99.90;;;;;;5050788;28;20029;-85
2022/03/15 07:34:02;;;;;;;13.13;3.88;;;12.30;99.90;;;;;;5050723;28;20029;-85
2022/03/15 07:36:28;;;;;;;7.20;3.03;;;12.50;99.90;;;;;;5050463;28;20503;-84
2022/03/15 07:38:54;;;;;;;8.98;3.22;;;12.60;99.90;;;;;;5051440;28;20477;-85
2022/03/15 07:41:21;;;;;;;9.40;4.03;;;12.80;99.90;;;;;;5050394;28;20040;-85
2022/03/15 07:43:47;;;;;;;7.40;3.10;;;12.90;99.90;;;;;;5050500;28;20071;-84
2022/03/15 07:46:13;;;;;;;11.45;3.33;;;13.20;99.90;;;;;;5050526;28;20541;-85
2022/03/15 07:48:39;;;;;;;9.05;3.35;;;13.20;99.90;;;;;;5050031;28;20121;-85
2022/03/15 07:51:05;;;;;;;10.05;3.00;;;12.90;99.90;;;;;;5051545;28;20045;-85
2022/03/15 07:53:30;;;;;;;7.53;3.08;;;12.90;99.90;;;;;;5049813;28;20075;-84
2022/03/15 07:56:00;;;;;;;11.38;3.38;;;12.70;99.90;;;;;;5049485;28;20033;-84
2022/03/15 07:58:27;;;;;;;6.63;2.65;;;12.70;99.90;;;;;;5050199;28;20103;-85
2022/03/15 08:00:54;;;;;;;9.30;3.08;;;12.70;99.90;;;;;;5050481;28;20094;-84
2022/03/15 08:03:22;;;;;;;10.93;3.85;;;12.70;99.90;;;;;;5051544;28;20021;-85
2022/03/15 08:05:48;;;;;;;12.65;3.60;;;12.70;99.90;;;;;;5050451;28;20029;-85
2022/03/15 08:08:15;;;;;;;9.27;2.92;;;12.70;99.90;;;;;;5049723;28;20057;-84
2022/03/15 08:10:41;;;;;;;8.18;3.05;;;12.60;99.90;;;;;;5049841;28;20036;-86
2022/03/15 08:13:07;;;;;;;9.05;3.17;;;12.60;99.90;;;;;;5050322;28;20043;-85
2022/03/15 08:15:34;;;;;;;7.57;2.88;;;12.60;99.90;;;;;;5050131;28;20016;-84
2022/03/15 08:18:00;;;;;;;5.53;2.88;;;12.60;99.90;;;;;;5051049;28;20029;-84
2022/03/15 08:20:41;;;;;;;8.00;3.30;;;12.60;99.90;;;;;;5049744;28;20021;-84
2022/03/15 08:23:10;;;;;;;9.02;3.30;;;12.70;99.90;;;;;;5049552;28;20094;-84
2022/03/15 08:25:36;;;;;;;7.15;3.15;;;12.70;99.90;;;;;;5049602;28;20103;-85
2022/03/15 08:28:02;;;;;;;9.60;4.15;;;12.80;99.90;;;;;;5049828;28;20044;-85
2022/03/15 08:30:28;;;;;;;15.30;3.72;;;12.80;99.90;;;;;;5050219;28;20025;-85
2022/03/15 08:32:54;;;;;;;9.27;4.05;;;12.80;99.90;;;;;;5050852;28;20048;-85
2022/03/15 08:35:21;;;;;;;10.18;3.05;;;12.90;99.90;;;;;;5049304;28;20087;-85
2022/03/15 08:37:50;;;;;;;10.70;3.00;;;13.00;99.90;;;;;;5049095;28;20029;-84
2022/03/15 08:40:16;;;;;;;6.65;3.05;;;13.00;99.90;;;;;;5049573;28;20013;-84
2022/03/15 08:42:42;;;;;;;11.88;3.70;;;13.00;99.90;;;;;;5049751;28;20029;-85
2022/03/15 08:45:10;;;;;;;8.63;3.58;;;13.00;99.90;;;;;;5050772;28;20028;-85
2022/03/15 08:47:36;;;;;;;7.82;3.13;;;13.10;99.90;;;;;;5049571;28;20029;-84
2022/03/15 08:50:04;;;;;;;11.63;3.90;;;13.20;99.90;;;;;;5049151;28;20175;-85
2022/03/15 08:52:29;;;;;;;11.02;3.20;;;13.30;99.90;;;;;;5049142;28;20029;-85
2022/03/15 08:54:55;;;;;;;9.40;3.55;;;13.40;99.90;;;;;;5049632;28;20483;-84
2022/03/15 08:57:21;;;;;;;6.13;3.33;;;13.40;99.90;;;;;;5050506;28;20036;-86
2022/03/15 08:59:47;;;;;;;10.73;3.83;;;13.50;99.90;;;;;;5049996;28;20024;-85
2022/03/15 09:02:13;;;;;;;9.38;3.42;;;13.60;99.90;;;;;;5049506;28;20032;-84
2022/03/15 09:04:39;;;;;;;11.00;4.15;;;13.60;99.90;;;;;;5049408;28;20429;-84
2022/03/15 09:07:05;;;;;;;13.48;4.10;;;13.70;99.90;;;;;;5051322;28;20043;-84
2022/03/15 09:09:31;;;;;;;17.15;3.95;;;14.00;99.90;;;;;;5053592;28;20025;-84
2022/03/15 09:11:57;;;;;;;12.55;3.58;;;14.10;99.90;;;;;;5054304;28;20029;-84
2022/03/15 09:14:23;;;;;;;10.40;3.53;;;14.00;99.90;;;;;;5053021;28;20384;-84
2022/03/15 09:16:49;;;;;;;9.00;3.90;;;13.90;99.90;;;;;;5053180;28;20028;-85
2022/03/15 09:19:15;;;;;;;17.75;4.93;;;13.90;99.90;;;;;;5053381;28;20025;-85
2022/03/15 09:21:41;;;;;;;13.10;5.90;;;13.80;99.90;;;;;;5052644;28;20382;-85
2022/03/15 09:24:07;;;;;;;8.52;3.65;;;13.80;99.90;;;;;;5054288;28;20445;-84
2022/03/15 09:26:33;;;;;;;11.63;4.45;;;13.80;99.90;;;;;;5052871;28;20415;-84
2022/03/15 09:29:00;;;;;;;12.38;4.57;;;13.80;99.90;;;;;;5052756;28;20029;-84
2022/03/15 09:31:26;;;;;;;15.45;4.20;;;13.80;99.90;;;;;;5052728;28;20025;-84
2022/03/15 09:33:51;;;;;;;14.32;4.90;;;14.10;99.90;;;;;;5053089;28;20027;-84
2022/03/15 09:36:18;;;;;;;13.05;4.40;;;14.20;99.90;;;;;;5049325;28;20391;-84
2022/03/15 09:38:44;;;;;;;10.48;4.05;;;14.20;99.90;;;;;;5052961;28;20017;-85
2022/03/15 09:41:10;;;;;;;16.23;5.13;;;14.10;99.90;;;;;;5052355;28;20029;-84
2022/03/15 09:43:41;;;;;;;10.70;4.20;;;14.10;99.90;;;;;;5053001;28;20487;-84
2022/03/15 09:46:08;;;;;;;16.42;4.60;;;14.10;99.90;;;;;;5052791;28;20036;-84
2022/03/15 09:48:35;;;;;;;11.23;3.42;;;14.00;99.90;;;;;;5052914;28;20029;-84
2022/03/15 09:51:06;;;;;;;9.40;3.83;;;14.00;99.90;;;;;;5052980;28;20127;-84
2022/03/15 09:53:37;;;;;;;10.73;3.58;;;13.90;99.90;;;;;;5052415;28;20070;-84
2022/03/15 09:56:03;;;;;;;15.40;3.70;;;14.00;99.90;;;;;;5052260;28;20514;-84
2022/03/15 09:58:29;;;;;;;13.88;4.50;;;14.00;99.90;;;;;;5052524;28;20036;-84
2022/03/15 10:00:57;;;;;;;11.40;3.90;;;14.00;99.90;;;;;;5052535;28;20025;-85
2022/03/15 10:03:23;;;;;;;11.40;3.92;;;14.00;99.90;;;;;;5053273;28;20032;-86
2022/03/15 10:05:50;;;;;;;11.93;3.80;;;14.00;99.90;;;;;;5052332;28;20020;-85
2022/03/15 10:08:20;;;;;;;21.35;4.40;;;13.90;99.90;;;;;;5052449;28;20474;-84
2022/03/15 10:10:51;;;;;;;14.43;4.07;;;13.90;99.90;;;;;;5052124;28;20033;-85
2022/03/15 10:13:18;;;;;;;14.02;4.35;;;13.90;99.90;;;;;;5052249;28;20056;-84
2022/03/15 10:15:54;;;;;;;7.03;3.05;;;14.00;99.90;;;;;;5051935;28;20032;-85
2022/03/15 10:18:21;;;;;;;12.73;4.32;;;14.00;99.90;;;;;;5052912;28;20032;-85
2022/03/15 10:20:48;;;;;;;13.35;3.78;;;14.20;99.90;;;;;;5052365;28;20163;-85
2022/03/15 10:23:16;;;;;;;14.48;4.78;;;14.20;99.90;;;;;;5052061;28;20055;-84
2022/03/15 10:25:46;;;;;;;14.10;4.65;;;14.30;99.90;;;;;;5052380;28;20113;-84
2022/03/15 10:28:13;;;;;;;12.02;4.80;;;14.30;99.90;;;;;;5052095;28;20041;-84
2022/03/15 10:30:39;;;;;;;15.05;4.25;;;14.30;99.90;;;;;;5051843;28;20044;-84
2022/03/15 10:33:06;;;;;;;12.10;4.50;;;14.40;99.90;;;;;;5052934;28;20052;-85
2022/03/15 10:35:38;;;;;;;12.38;4.22;;;14.60;99.90;;;;;;5051815;28;20128;-84
2022/03/15 10:38:06;;;;;;;14.35;5.10;;;14.70;99.90;;;;;;5051560;28;20053;-84
2022/03/15 10:40:48;;;;;;;8.68;3.80;;;14.70;99.90;;;;;;5051743;28;20018;-84
2022/03/15 10:43:21;;;;;;;15.90;4.47;;;15.10;99.90;;;;;;5051790;28;20017;-84
2022/03/15 10:45:56;;;;;;;11.70;3.92;;;15.00;99.90;;;;;;5051715;28;20028;-85
2022/03/15 10:48:29;;;;;;;18.58;5.18;;;14.70;99.90;;;;;;5052747;28;20036;-86
2022/03/15 10:50:59;;;;;;;14.52;4.03;;;14.80;99.90;;;;;;5051461;28;20049;-84
2022/03/15 10:53:34;;;;;;;10.60;4.35;;;14.60;99.90;;;;;;5051302;28;20037;-84
2022/03/15 10:56:19;;;;;;;16.90;5.43;;;14.70;99.90;;;;;;5051240;28;20040;-84
2022/03/15 10:59:00;;;;;;;24.98;5.50;;;14.50;99.90;;;;;;5051087;28;20033;-84
2022/03/15 11:01:27;;;;;;;17.98;5.45;;;14.60;99.90;;;;;;5051178;28;20040;-85
2022/03/15 11:03:57;;;;;;;11.32;4.03;;;14.70;99.90;;;;;;5051204;28;20017;-84
2022/03/15 11:06:44;;;;;;;14.73;5.47;;;14.80;99.90;;;;;;5051748;28;20032;-84
2022/03/15 11:09:24;;;;;;;14.13;4.72;;;14.80;99.90;;;;;;5051326;28;20024;-84
2022/03/15 11:12:06;;;;;;;17.00;4.38;;;14.70;99.90;;;;;;5033979;28;20490;-86
2022/03/15 11:14:49;;;;;;;13.88;4.40;;;14.70;99.90;;;;;;5050998;28;20074;-85
2022/03/15 11:17:17;;;;;;;10.02;3.90;;;14.90;99.90;;;;;;5050618;28;20601;-86
2022/03/15 11:19:47;;;;;;;11.73;4.43;;;14.90;99.90;;;;;;5050982;28;20108;-85
2022/03/15 11:22:20;;;;;;;17.92;4.28;;;14.60;99.90;;;;;;5051119;28;20029;-84
2022/03/15 11:25:01;;;;;;;13.02;4.43;;;14.60;99.90;;;;;;5051096;28;20013;-85
2022/03/15 11:27:33;;;;;;;14.83;4.50;;;14.60;99.90;;;;;;5051132;28;20029;-84
2022/03/15 11:30:05;;;;;;;11.18;3.67;;;14.50;99.90;;;;;;5050761;28;20045;-85
2022/03/15 11:32:32;;;;;;;;;;;14.60;99.90;;;;;;5051081;28;20132;-85
2022/03/15 11:34:58;;;;;;;13.35;4.60;;;14.50;99.90;;;;;;5050278;28;19909;-85
2022/03/15 11:37:25;;;;;;;12.43;4.43;;;14.50;99.90;;;;;;5050220;28;20021;-85
2022/03/15 11:39:53;;;;;;;14.10;5.05;;;14.40;99.90;;;;;;5037896;28;20029;-84
2022/03/15 11:42:19;;;;;;;14.63;4.55;;;14.40;99.90;;;;;;5052010;28;20017;-85
2022/03/15 11:45:17;;;;;;;19.90;5.43;;;14.40;99.90;;;;;;5050310;28;20060;-85
2022/03/15 11:47:54;;;;;;;14.48;4.57;;;14.40;99.90;;;;;;5050226;28;20112;-84
2022/03/15 11:50:31;;;;;;;12.40;4.32;;;14.40;99.90;;;;;;5050156;28;20136;-86
2022/03/15 11:53:12;;;;;;;15.50;4.50;;;14.40;99.90;;;;;;5127320;27;20909;-83
2022/03/15 11:55:45;;;;;;;13.32;5.03;;;14.40;99.90;;;;;;5107351;28;20085;-83
2022/03/15 11:58:21;;;;;;;12.70;4.20;;;14.50;99.90;;;;;;5107538;28;20016;-83
2022/03/15 12:00:48;;;;;;;19.05;5.13;;;14.40;99.90;;;;;;5107108;28;20064;-84
2022/03/15 12:03:18;;;;;;;11.15;4.53;;;14.50;99.90;;;;;;5108712;28;20044;-84
2022/03/15 12:05:45;;;;;;;14.63;4.93;;;14.60;99.90;;;;;;5088962;28;20115;-85
2022/03/15 12:08:23;;;;;;;13.25;4.50;;;14.80;99.90;;;;;;5107249;28;20330;-84
2022/03/15 12:10:57;;;;;;;10.23;3.97;;;14.80;99.90;;;;;;5106912;28;20045;-83
2022/03/15 12:13:43;;;;;;;12.27;4.72;;;14.80;99.90;;;;;;5107100;28;20020;-83
2022/03/15 12:16:18;;;;;;;15.93;4.90;;;14.70;99.90;;;;;;5093120;28;20073;-84
2022/03/15 12:19:02;;;;;;;16.58;4.85;;;14.70;99.90;;;;;;5107055;28;20093;-84
2022/03/15 12:21:28;;;;;;;12.88;5.10;;;14.90;99.90;;;;;;5107431;28;20057;-84
2022/03/15 12:23:55;;;;;;;14.38;5.68;;;14.90;99.90;;;;;;5107795;28;20098;-85
2022/03/15 12:26:31;;;;;;;13.27;4.32;;;14.90;99.90;;;;;;5088490;28;20027;-85
2022/03/15 12:29:03;;;;;;;12.48;5.22;;;14.80;99.90;;;;;;5106479;28;20058;-85
2022/03/15 12:31:32;;;;;;;15.15;4.85;;;14.80;99.90;;;;;;5106683;28;20042;-84
2022/03/15 12:34:03;;;;;;;12.88;4.63;;;14.80;99.90;;;;;;5088464;28;20106;-85
2022/03/15 12:36:37;;;;;;;15.65;4.85;;;14.80;99.90;;;;;;5106758;28;20020;-85
2022/03/15 12:39:11;;;;;;;14.93;5.13;;;14.60;99.90;;;;;;5108108;28;20024;-84
2022/03/15 12:41:37;;;;;;;15.27;4.97;;;14.60;99.90;;;;;;5106736;28;20035;-84